createdAt,value
2018-11-20T00:02:09.214Z,100893.27
2018-11-20T00:05:18.451Z,100889.06
2018-11-20T00:08:27.236Z,100882.15
2018-11-20T00:11:36.091Z,100873.91
2018-11-20T00:14:44.992Z,100873.58
2018-11-20T00:17:53.861Z,100875.73
2018-11-20T00:21:02.722Z,100879.25
2018-11-20T00:24:12.436Z,100869.72
2018-11-20T00:27:21.850Z,100892.25
2018-11-20T00:30:30.883Z,100887.87
2018-11-20T00:33:40.555Z,100882.70
2018-11-20T00:36:49.667Z,100888.78
2018-11-20T00:39:58.705Z,100883.66
2018-11-20T00:43:07.693Z,100881.12
2018-11-20T00:46:16.602Z,100887.79
2018-11-20T00:49:25.490Z,100879.61
2018-11-20T00:52:34.406Z,100884.87
2018-11-20T00:56:24.136Z,100874.09
2018-11-20T00:59:32.935Z,100874.94
2018-11-20T01:02:42.006Z,100877.19
2018-11-20T01:05:50.956Z,100868.03
2018-11-20T01:09:00.904Z,100867.22
2018-11-20T01:12:09.825Z,100869.02
2018-11-20T01:15:18.903Z,100860.83
2018-11-20T01:18:28.071Z,100861.29
2018-11-20T01:21:36.929Z,100863.94
2018-11-20T01:24:45.758Z,100867.84
2018-11-20T01:27:46.019Z,100867.80
2018-11-20T01:30:54.825Z,100850.81
2018-11-20T01:34:03.692Z,100844.80
2018-11-20T01:37:12.576Z,100843.89
2018-11-20T01:40:21.702Z,100833.46
2018-11-20T01:43:27.769Z,100838.23
2018-11-20T01:46:36.656Z,100826.50
2018-11-20T01:49:45.945Z,100826.01
2018-11-20T01:52:55.049Z,100833.37
2018-11-20T01:56:03.865Z,100823.84
2018-11-20T01:59:12.756Z,100827.31
2018-11-20T02:02:21.782Z,100816.02
2018-11-20T02:05:31.211Z,100814.22
2018-11-20T02:08:40.261Z,100812.03
2018-11-20T02:11:49.768Z,100805.95
2018-11-20T02:14:40.712Z,100795.48
2018-11-20T02:18:02.687Z,100792.86
2018-11-20T02:21:11.562Z,100793.36
2018-11-20T02:24:19.689Z,100778.58
2018-11-20T02:27:28.802Z,100780.28
2018-11-20T02:30:37.818Z,100765.49
2018-11-20T02:33:46.732Z,100755.97
2018-11-20T02:36:55.771Z,100766.80
2018-11-20T02:40:04.609Z,100762.02
2018-11-20T02:43:13.552Z,100761.12
2018-11-20T02:46:22.420Z,100756.25
2018-11-20T02:49:31.319Z,100760.22
2018-11-20T02:52:40.161Z,100758.46
2018-11-20T02:55:49.028Z,100724.11
2018-11-20T02:58:52.551Z,100732.73
2018-11-20T03:02:01.438Z,100724.06
2018-11-20T03:04:51.380Z,100721.91
2018-11-20T03:07:59.148Z,100717.59
2018-11-20T03:11:08.050Z,100714.42
2018-11-20T03:14:17.128Z,100699.74
2018-11-20T03:17:16.357Z,100702.75
2018-11-20T03:20:25.657Z,100719.23
2018-11-20T03:23:34.963Z,100710.16
2018-11-20T03:26:44.161Z,100705.75
2018-11-20T03:30:12.392Z,100693.16
2018-11-20T03:33:21.302Z,100683.11
2018-11-20T03:36:30.118Z,100698.32
2018-11-20T03:39:39.014Z,100677.05
2018-11-20T03:42:47.933Z,100680.46
2018-11-20T03:45:57.162Z,100678.23
2018-11-20T03:49:06.238Z,100684.31
2018-11-20T03:52:04.093Z,100686.92
2018-11-20T03:55:12.968Z,100677.73
2018-11-20T03:58:21.822Z,100679.88
2018-11-20T04:01:30.695Z,100668.99
2018-11-20T04:04:39.584Z,100672.91
2018-11-20T04:07:48.457Z,100669.44
2018-11-20T04:10:57.309Z,100671.66
2018-11-20T04:14:06.204Z,100664.67
2018-11-20T04:17:15.087Z,100657.69
2018-11-20T04:20:25.226Z,100633.36
2018-11-20T04:23:34.179Z,100654.65
2018-11-20T04:26:43.053Z,100644.71
2018-11-20T04:29:52.027Z,100641.65
2018-11-20T04:33:38.710Z,100622.48
2018-11-20T04:36:42.792Z,100624.56
2018-11-20T04:39:51.656Z,100622.88
2018-11-20T04:43:00.551Z,100608.91
2018-11-20T04:46:09.414Z,100608.02
2018-11-20T04:49:18.388Z,100596.73
2018-11-20T04:52:18.835Z,100600.63
2018-11-20T04:55:27.815Z,100582.45
2018-11-20T04:58:36.686Z,100589.41
2018-11-20T05:01:37.116Z,100578.55
2018-11-20T05:04:45.934Z,100581.59
2018-11-20T05:07:54.808Z,100588.52
2018-11-20T05:11:03.779Z,100581.51
2018-11-20T05:14:12.669Z,100596.28
2018-11-20T05:17:21.539Z,100593.25
2018-11-20T05:20:30.411Z,100584.53
2018-11-20T05:23:39.314Z,100582.75
2018-11-20T05:26:41.174Z,100564.89
2018-11-20T05:29:50.085Z,100580.59
2018-11-20T05:32:58.919Z,100577.98
2018-11-20T05:36:07.807Z,100568.34
2018-11-20T05:39:16.792Z,100577.48
2018-11-20T05:42:25.678Z,100575.70
2018-11-20T05:45:34.530Z,100578.33
2018-11-20T05:48:43.421Z,100561.75
2018-11-20T05:51:52.287Z,100567.89
2018-11-20T05:55:01.179Z,100577.41
2018-11-20T05:58:10.124Z,100583.54
2018-11-20T06:01:19.124Z,100579.68
2018-11-20T06:04:18.150Z,100581.30
2018-11-20T06:07:27.024Z,100585.31
2018-11-20T06:10:35.908Z,100577.48
2018-11-20T06:13:44.807Z,100583.08
2018-11-20T06:16:53.703Z,100574.34
2018-11-20T06:20:02.606Z,100578.71
2018-11-20T06:26:01.006Z,100580.38
2018-11-20T06:28:51.026Z,100577.33
2018-11-20T06:32:00.011Z,100573.41
2018-11-20T06:35:08.861Z,100561.61
2018-11-20T06:38:17.773Z,100553.77
2018-11-20T06:41:26.704Z,100572.03
2018-11-20T06:44:35.728Z,100573.84
2018-11-20T06:47:44.657Z,100563.34
2018-11-20T06:50:53.549Z,100567.28
2018-11-20T06:54:02.534Z,100563.34
2018-11-20T06:57:11.468Z,100549.85
2018-11-20T07:00:20.323Z,100561.99
2018-11-20T07:03:29.213Z,100548.95
2018-11-20T07:06:38.121Z,100555.45
2018-11-20T07:09:46.999Z,100551.52
2018-11-20T07:12:55.890Z,100553.30
2018-11-20T07:16:05.009Z,100545.48
2018-11-20T07:19:13.658Z,100527.66
2018-11-20T07:22:22.629Z,100536.73
2018-11-20T07:25:31.700Z,100543.71
2018-11-20T07:28:40.529Z,100541.03
2018-11-20T07:31:49.389Z,100542.81
2018-11-20T07:34:58.279Z,100546.31
2018-11-20T07:38:07.114Z,100543.17
2018-11-20T07:41:15.943Z,100556.73
2018-11-20T07:44:24.889Z,100551.52
2018-11-20T07:47:33.702Z,100546.69
2018-11-20T07:50:42.717Z,100556.69
2018-11-20T07:53:51.650Z,100555.39
2018-11-20T07:57:00.569Z,100559.28
2018-11-20T08:00:09.437Z,100541.87
2018-11-20T08:03:18.336Z,100538.79
2018-11-20T08:06:27.233Z,100523.53
2018-11-20T08:09:36.107Z,100541.80
2018-11-20T08:12:44.963Z,100535.73
2018-11-20T08:15:53.952Z,100531.75
2018-11-20T08:18:58.299Z,100532.58
2018-11-20T08:22:08.033Z,100548.67
2018-11-20T08:25:17.040Z,100545.23
2018-11-20T08:28:25.941Z,100534.27
2018-11-20T08:31:34.888Z,100543.41
2018-11-20T08:34:43.785Z,100542.94
2018-11-20T08:37:52.696Z,100546.08
2018-11-20T08:40:54.453Z,100546.02
2018-11-20T08:44:03.394Z,100549.08
2018-11-20T08:47:12.345Z,100495.59
2018-11-20T08:50:21.277Z,100543.00
2018-11-20T08:53:30.193Z,100526.28
2018-11-20T08:56:39.045Z,100525.09
2018-11-20T08:59:47.897Z,100513.68
2018-11-20T09:02:56.843Z,100521.87
2018-11-20T09:06:05.711Z,100505.06
2018-11-20T09:09:14.581Z,100521.11
2018-11-20T09:12:23.485Z,100530.72
2018-11-20T09:15:13.502Z,100516.22
2018-11-20T09:18:22.358Z,100524.67
2018-11-20T09:21:31.270Z,100524.70
2018-11-20T09:24:21.262Z,100527.23
2018-11-20T09:27:30.191Z,100526.84
2018-11-20T09:30:39.308Z,100524.72
2018-11-20T09:36:34.970Z,100532.98
2018-11-20T09:39:44.289Z,100531.41
2018-11-20T09:42:53.696Z,100529.09
2018-11-20T09:46:10.614Z,100516.94
2018-11-20T09:49:19.478Z,100516.02
2018-11-20T09:52:28.455Z,100514.99
2018-11-20T09:55:37.269Z,100518.08
2018-11-20T09:58:27.332Z,100507.27
2018-11-20T10:01:36.176Z,100521.47
2018-11-20T10:04:32.913Z,100520.92
2018-11-20T10:07:41.819Z,100511.83
2018-11-20T10:10:50.820Z,100500.01
2018-11-20T10:14:00.247Z,100503.09
2018-11-20T10:17:11.450Z,100512.70
2018-11-20T10:20:24.677Z,100507.29
2018-11-20T10:23:34.430Z,100512.16
2018-11-20T10:26:44.142Z,100501.23
2018-11-20T10:29:53.017Z,100505.25
2018-11-20T10:33:01.882Z,100505.97
2018-11-20T10:36:10.792Z,100490.87
2018-11-20T10:39:19.869Z,100489.11
2018-11-20T10:42:28.770Z,100481.42
2018-11-20T10:48:47.828Z,100476.53
2018-11-20T10:51:56.850Z,100467.14
2018-11-20T10:55:05.785Z,100466.78
2018-11-20T10:58:14.753Z,100447.30
2018-11-20T11:01:23.755Z,100449.81
2018-11-20T11:04:33.031Z,100448.23
2018-11-20T11:07:41.987Z,100446.34
2018-11-20T11:10:50.717Z,100440.88
2018-11-20T11:13:59.643Z,100425.00
2018-11-20T11:17:08.556Z,100438.23
2018-11-20T11:20:17.524Z,100442.05
2018-11-20T11:23:18.051Z,100426.25
2018-11-20T11:26:26.954Z,100426.39
2018-11-20T11:29:35.932Z,100416.55
2018-11-20T11:32:45.080Z,100430.87
2018-11-20T11:35:54.272Z,100429.87
2018-11-20T11:39:03.191Z,100422.59
2018-11-20T11:42:12.249Z,100409.64
2018-11-20T11:45:21.218Z,100412.16
2018-11-20T11:48:30.208Z,100415.31
2018-11-20T11:51:39.109Z,100408.73
2018-11-20T11:54:48.024Z,100408.85
2018-11-20T11:57:57.168Z,100407.86
2018-11-20T12:01:06.194Z,100401.58
2018-11-20T12:04:15.055Z,100408.19
2018-11-20T12:07:23.976Z,100420.41
2018-11-20T12:10:36.312Z,100416.70
2018-11-20T12:13:42.248Z,100412.89
2018-11-20T12:16:51.289Z,100400.19
2018-11-20T12:20:00.597Z,100403.65
2018-11-20T12:23:09.501Z,100351.44
2018-11-20T12:26:18.415Z,100408.42
2018-11-20T12:29:27.339Z,100410.53
2018-11-20T12:32:36.365Z,100395.73
2018-11-20T12:35:45.339Z,100400.74
2018-11-20T12:38:54.302Z,100398.32
2018-11-20T12:42:04.887Z,100389.75
2018-11-20T12:45:13.554Z,100402.53
2018-11-20T12:48:22.366Z,100396.55
2018-11-20T12:51:30.023Z,100398.53
2018-11-20T12:54:38.991Z,100391.25
2018-11-20T12:57:47.938Z,100388.53
2018-11-20T13:00:56.910Z,100385.22
2018-11-20T13:04:05.991Z,100389.84
2018-11-20T13:07:14.970Z,100391.06
2018-11-20T13:10:24.114Z,100399.04
2018-11-20T13:13:33.167Z,100394.67
2018-11-20T13:16:41.280Z,100390.75
2018-11-20T13:19:50.594Z,100387.45
2018-11-20T13:22:59.568Z,100395.15
2018-11-20T13:26:08.451Z,100382.73
2018-11-20T13:29:17.392Z,100397.04
2018-11-20T13:32:26.490Z,100386.97
2018-11-20T13:38:24.967Z,100382.38
2018-11-20T13:41:42.962Z,100390.98
2018-11-20T13:44:54.846Z,100389.55
2018-11-20T13:48:03.894Z,100382.56
2018-11-20T13:51:12.898Z,100388.45
2018-11-20T13:54:22.357Z,100388.42
2018-11-20T13:57:31.521Z,100378.15
2018-11-20T14:00:42.500Z,100382.44
2018-11-20T14:03:54.488Z,100384.37
2018-11-20T14:07:03.511Z,100383.80
2018-11-20T14:10:13.841Z,100373.59
2018-11-20T14:13:22.804Z,100368.98
2018-11-20T14:16:32.067Z,100359.80
2018-11-20T14:19:40.972Z,100357.92
2018-11-20T14:22:49.860Z,100355.85
2018-11-20T14:25:58.904Z,100352.56
2018-11-20T14:29:07.832Z,100348.84
2018-11-20T14:32:16.785Z,100337.59
2018-11-20T14:35:25.883Z,100337.56
2018-11-20T14:38:34.793Z,100335.80
2018-11-20T14:41:33.074Z,100321.27
2018-11-20T14:44:31.402Z,100327.94
2018-11-20T14:47:40.368Z,100323.51
2018-11-20T14:50:49.230Z,100332.71
2018-11-20T14:53:58.121Z,100322.06
2018-11-20T14:57:00.152Z,100318.63
2018-11-20T15:00:09.126Z,100331.29
2018-11-20T15:03:17.975Z,100327.47
2018-11-20T15:06:26.925Z,100325.53
2018-11-20T15:09:35.855Z,100325.27
2018-11-20T15:12:34.239Z,100328.53
2018-11-20T15:15:45.080Z,100332.45
2018-11-20T15:18:54.038Z,100328.45
2018-11-20T15:22:21.831Z,100331.45
2018-11-20T15:25:30.249Z,100326.91
2018-11-20T15:28:39.129Z,100336.02
2018-11-20T15:31:48.027Z,100333.81
2018-11-20T15:34:46.346Z,100329.63
2018-11-20T15:37:55.414Z,100333.28
2018-11-20T15:41:04.298Z,100336.05
2018-11-20T15:44:13.205Z,100330.59
2018-11-20T15:47:22.054Z,100337.31
2018-11-20T15:50:31.030Z,100334.52
2018-11-20T15:53:39.917Z,100345.00
2018-11-20T15:56:48.777Z,100337.45
2018-11-20T15:59:57.725Z,100344.26
2018-11-20T16:02:47.681Z,100355.42
2018-11-20T16:05:56.543Z,100356.12
2018-11-20T16:08:57.233Z,100357.48
2018-11-20T16:12:06.090Z,100364.69
2018-11-20T16:15:15.091Z,100334.72
2018-11-20T16:18:24.058Z,100369.63
2018-11-20T16:21:33.046Z,100370.56
2018-11-20T16:24:42.139Z,100368.09
2018-11-20T16:27:51.069Z,100370.83
2018-11-20T16:30:59.988Z,100375.06
2018-11-20T16:34:08.894Z,100374.74
2018-11-20T16:37:17.820Z,100375.69
2018-11-20T16:40:27.657Z,100369.23
2018-11-20T16:43:36.588Z,100378.41
2018-11-20T16:46:45.506Z,100379.27
2018-11-20T16:49:54.448Z,100383.72
2018-11-20T16:53:03.350Z,100389.73
2018-11-20T16:56:12.285Z,100375.34
2018-11-20T16:59:21.242Z,100388.05
2018-11-20T17:02:30.119Z,100380.62
2018-11-20T17:05:39.088Z,100387.55
2018-11-20T17:08:47.957Z,100398.92
2018-11-20T17:11:56.974Z,100395.55
2018-11-20T17:15:05.913Z,100388.27
2018-11-20T17:18:04.387Z,100387.88
2018-11-20T17:21:13.331Z,100376.94
2018-11-20T17:24:22.239Z,100393.94
2018-11-20T17:27:31.329Z,100382.34
2018-11-20T17:30:42.543Z,100373.61
2018-11-20T17:33:51.451Z,100379.22
2018-11-20T17:37:00.403Z,100382.73
2018-11-20T17:40:09.369Z,100371.99
2018-11-20T17:43:18.270Z,100347.27
2018-11-20T17:46:27.398Z,100361.59
2018-11-20T17:49:36.285Z,100366.39
2018-11-20T17:52:45.208Z,100370.24
2018-11-20T17:55:54.154Z,100364.14
2018-11-20T17:59:03.151Z,100366.22
2018-11-20T18:02:12.061Z,100371.40
2018-11-20T18:05:21.004Z,100372.64
2018-11-20T18:08:29.895Z,100379.30
2018-11-20T18:11:38.830Z,100389.11
2018-11-20T18:14:47.709Z,100396.02
2018-11-20T18:17:56.729Z,100405.39
2018-11-20T18:20:58.020Z,100389.30
2018-11-20T18:24:06.916Z,100414.48
2018-11-20T18:27:19.053Z,100409.67
2018-11-20T18:30:22.580Z,100409.61
2018-11-20T18:33:31.637Z,100418.28
2018-11-20T18:36:40.503Z,100414.73
2018-11-20T18:39:49.458Z,100426.41
2018-11-20T18:42:39.493Z,100410.37
2018-11-20T18:45:48.443Z,100423.41
2018-11-20T18:48:57.403Z,100418.45
2018-11-20T18:52:06.760Z,100415.91
2018-11-20T18:55:15.752Z,100411.66
2018-11-20T18:58:24.882Z,100389.91
2018-11-20T19:01:33.903Z,100385.50
2018-11-20T19:04:42.828Z,100367.23
2018-11-20T19:07:51.842Z,100351.77
2018-11-20T19:11:00.764Z,100358.67
2018-11-20T19:14:10.006Z,100368.67
2018-11-20T19:17:18.935Z,100376.30
2018-11-20T19:20:27.903Z,100375.91
2018-11-20T19:23:36.838Z,100398.36
2018-11-20T19:26:46.404Z,100401.69
2018-11-20T19:29:55.337Z,100415.17
2018-11-20T19:33:04.296Z,100411.23
2018-11-20T19:36:13.237Z,100418.20
2018-11-20T19:39:22.664Z,100422.12
2018-11-20T19:42:31.675Z,100430.66
2018-11-20T19:45:40.595Z,100428.50
2018-11-20T19:48:49.572Z,100415.94
2018-11-20T19:52:00.995Z,100422.30
2018-11-20T19:55:07.669Z,100420.20
2018-11-20T19:58:16.577Z,100428.48
2018-11-20T20:01:25.873Z,100433.55
2018-11-20T20:04:34.869Z,100435.33
2018-11-20T20:07:36.313Z,100444.36
2018-11-20T20:10:45.290Z,100453.48
2018-11-20T20:13:54.193Z,100463.92
2018-11-20T20:17:03.140Z,100464.83
2018-11-20T20:20:12.159Z,100473.90
2018-11-20T20:23:21.064Z,100463.00
2018-11-20T20:26:29.967Z,100473.53
2018-11-20T20:29:38.940Z,100481.92
2018-11-20T20:32:47.798Z,100475.56
2018-11-20T20:35:56.692Z,100484.90
2018-11-20T20:39:05.584Z,100476.81
2018-11-20T20:42:14.682Z,100476.47
2018-11-20T20:45:24.540Z,100484.75
2018-11-20T20:48:35.853Z,100475.20
2018-11-20T20:51:42.412Z,100480.08
2018-11-20T20:54:51.370Z,100489.20
2018-11-20T20:58:00.280Z,100483.64
2018-11-20T21:01:09.223Z,100481.50
2018-11-20T21:04:18.950Z,100484.67
2018-11-20T21:07:27.805Z,100478.23
2018-11-20T21:10:27.052Z,100478.22
2018-11-20T21:13:36.118Z,100481.27
2018-11-20T21:16:45.055Z,100495.60
2018-11-20T21:19:53.867Z,100495.98
2018-11-20T21:23:02.738Z,100504.27
2018-11-20T21:26:11.592Z,100503.41
2018-11-20T21:29:20.496Z,100511.69
2018-11-20T21:32:29.360Z,100519.22
2018-11-20T21:35:38.459Z,100529.23
2018-11-20T21:38:47.355Z,100539.44
2018-11-20T21:41:56.422Z,100539.49
2018-11-20T21:45:05.317Z,100538.49
2018-11-20T21:48:02.824Z,100512.88
2018-11-20T21:51:11.919Z,100511.05
2018-11-20T21:54:20.782Z,100510.38
2018-11-20T21:57:29.923Z,100504.20
2018-11-20T22:00:59.849Z,100524.13
2018-11-20T22:04:08.731Z,100535.45
2018-11-20T22:07:17.618Z,100550.69
2018-11-20T22:10:27.088Z,100551.59
2018-11-20T22:13:35.977Z,100547.84
2018-11-20T22:16:44.855Z,100554.73
2018-11-20T22:19:53.752Z,100560.86
2018-11-20T22:23:02.663Z,100556.96
2018-11-20T22:26:11.498Z,100573.82
2018-11-20T22:29:20.391Z,100585.94
2018-11-20T22:32:29.495Z,100593.70
2018-11-20T22:35:38.362Z,100598.45
2018-11-20T22:38:47.210Z,100594.55
2018-11-20T22:41:56.086Z,100592.79
2018-11-20T22:45:04.955Z,100587.13
2018-11-20T22:48:13.801Z,100598.84
2018-11-20T22:51:22.707Z,100595.49
2018-11-20T22:54:31.560Z,100587.75
2018-11-20T22:57:40.468Z,100592.05
2018-11-20T23:00:49.352Z,100600.81
2018-11-20T23:03:58.232Z,100605.67
2018-11-20T23:07:07.096Z,100606.61
2018-11-20T23:10:16.189Z,100611.31
2018-11-20T23:13:06.622Z,100611.77
2018-11-20T23:16:17.350Z,100605.75
2018-11-20T23:21:58.760Z,100602.80
2018-11-20T23:24:49.146Z,100606.30
2018-11-20T23:27:58.031Z,100609.80
2018-11-20T23:30:48.495Z,100604.64
2018-11-20T23:33:38.939Z,100614.64
2018-11-20T23:36:29.350Z,100613.34
2018-11-20T23:39:19.725Z,100616.03
2018-11-20T23:42:10.145Z,100612.05
2018-11-20T23:45:00.558Z,100605.54
2018-11-20T23:47:50.975Z,100611.19
2018-11-20T23:50:41.355Z,100613.78
2018-11-20T23:53:50.280Z,100607.73
2018-11-20T23:56:40.658Z,100601.64
2018-11-20T23:59:31.101Z,100599.93
